Time;durP1;ratioP1;P1;durP2;ratioP2;P2;SDS_P1;SDS_P2;PMS_P1;PMS_P2;Temp;Humidity;BMP_temperature;BMP_pressure;BME280_temperature;BME280_humidity;BME280_pressure;Samples;Min_cycle;Max_cycle;Signal;HPM_P1;HPM_P2
2021/04/28 00:00:11;;;;;;;25.50;17.05;;;;;;;5.38;59.75;99848.26;2896410;82;21181;-60
2021/04/28 00:04:16;;;;;;;32.42;19.82;;;;;;;5.27;60.25;99855.58;2873892;82;21179;-60
2021/04/28 00:08:21;;;;;;;35.28;18.65;;;;;;;5.21;60.26;99849.37;2895098;82;21191;-60
2021/04/28 00:12:24;;;;;;;32.80;17.65;;;;;;;5.18;60.26;99846.48;2896395;82;21136;-60
2021/04/28 00:16:28;;;;;;;28.23;18.45;;;;;;;5.17;60.33;99842.61;2896450;82;21124;-60
2021/04/28 00:20:39;;;;;;;27.48;17.77;;;;;;;5.12;60.60;99841.63;2896481;82;21196;-60
2021/04/28 00:24:42;;;;;;;25.72;16.27;;;;;;;5.10;60.75;99840.85;2896254;82;21121;-61
2021/04/28 00:28:45;;;;;;;24.20;16.40;;;;;;;5.03;60.76;99835.17;2896434;82;21152;-58
2021/04/28 00:32:50;;;;;;;22.15;15.75;;;;;;;4.87;61.76;99831.36;2896449;82;21112;-59
2021/04/28 00:36:53;;;;;;;33.92;16.77;;;;;;;4.63;62.44;99835.96;2896337;82;21638;-59
2021/04/28 00:40:58;;;;;;;25.10;18.30;;;;;;;4.61;62.59;99830.41;2896595;82;21164;-58
2021/04/28 00:45:04;;;;;;;38.95;24.02;;;;;;;4.65;62.66;99831.44;2897163;82;21152;-58
2021/04/28 00:49:06;;;;;;;27.48;17.90;;;;;;;4.63;63.19;99828.06;2899720;82;21104;-59
2021/04/28 00:53:14;;;;;;;28.62;19.75;;;;;;;4.57;63.33;99813.97;2899931;82;21168;-59
2021/04/28 00:57:17;;;;;;;22.52;17.57;;;;;;;4.65;63.41;99812.99;2899758;82;21160;-59
2021/04/28 01:01:20;;;;;;;18.62;14.43;;;;;;;4.54;63.64;99812.37;2899772;82;21171;-58
2021/04/28 01:05:24;;;;;;;28.70;18.60;;;;;;;4.60;63.63;99813.77;2899956;82;21140;-59
2021/04/28 01:09:27;;;;;;;20.32;15.55;;;;;;;4.63;63.46;99806.15;2899619;82;21602;-58
2021/04/28 01:13:32;;;;;;;23.30;14.15;;;;;;;4.65;63.36;99803.77;2899885;82;21726;-59
2021/04/28 01:17:37;;;;;;;24.92;18.55;;;;;;;4.66;63.53;99802.00;2874866;82;21129;-59
2021/04/28 01:21:41;;;;;;;24.92;16.97;;;;;;;4.57;63.70;99794.22;2900007;82;21180;-59
2021/04/28 01:25:45;;;;;;;16.25;13.72;;;;;;;4.62;63.70;99793.89;2899681;82;21574;-59
2021/04/28 01:29:48;;;;;;;23.57;15.58;;;;;;;4.55;63.81;99790.84;2899682;82;21590;-59
2021/04/28 01:33:58;;;;;;;18.95;15.50;;;;;;;4.54;63.92;99793.93;2899654;82;21183;-58
2021/04/28 01:38:01;;;;;;;18.82;13.22;;;;;;;4.62;63.71;99789.48;2899654;82;21625;-58
2021/04/28 01:42:06;;;;;;;19.35;13.80;;;;;;;4.64;63.46;99797.30;2899828;82;21152;-59
2021/04/28 01:46:12;;;;;;;24.57;14.93;;;;;;;4.49;63.77;99793.84;2899735;82;21140;-59
2021/04/28 01:50:18;;;;;;;;;;;;;;;4.31;64.18;99801.15;2902123;80;21167;-59
2021/04/28 01:54:22;;;;;;;17.25;11.63;;;;;;;4.18;64.06;99797.97;2899897;82;20181;-59
2021/04/28 01:58:27;;;;;;;17.80;14.05;;;;;;;4.12;64.07;99797.88;2899800;82;21168;-59
2021/04/28 02:02:30;;;;;;;22.37;15.30;;;;;;;4.12;63.90;99790.47;2899947;82;21142;-59
2021/04/28 02:06:34;;;;;;;17.30;13.10;;;;;;;4.09;64.17;99788.03;2899627;82;21163;-59
2021/04/28 02:10:37;;;;;;;18.95;13.10;;;;;;;4.07;64.32;99778.07;2874638;82;21195;-59
2021/04/28 02:14:43;;;;;;;18.23;11.43;;;;;;;4.10;64.75;99777.88;2900037;82;21148;-58
2021/04/28 02:18:47;;;;;;;18.57;12.25;;;;;;;4.09;64.67;99774.87;2900039;82;21197;-59
2021/04/28 02:22:51;;;;;;;17.12;13.62;;;;;;;4.09;64.72;99778.81;2899791;82;21120;-58
2021/04/28 02:26:57;;;;;;;18.75;12.93;;;;;;;4.09;64.66;99770.43;2899791;82;21152;-59
2021/04/28 02:31:04;;;;;;;23.18;13.75;;;;;;;4.10;64.66;99766.03;2899629;82;21597;-59
2021/04/28 02:35:09;;;;;;;19.32;13.28;;;;;;;4.13;64.63;99763.20;2899700;80;21229;-59
2021/04/28 02:39:22;;;;;;;21.75;15.55;;;;;;;4.14;64.50;99764.42;2899677;82;21683;-59
2021/04/28 02:43:26;;;;;;;23.40;16.40;;;;;;;4.14;64.66;99759.62;2899950;82;21172;-59
2021/04/28 02:47:31;;;;;;;15.28;12.25;;;;;;;4.17;64.52;99751.52;2897354;81;21225;-59
2021/04/28 02:51:38;;;;;;;16.83;11.50;;;;;;;4.19;64.27;99743.54;2873412;82;21191;-58
2021/04/28 02:55:42;;;;;;;22.62;14.05;;;;;;;4.14;64.17;99740.73;2895963;82;21179;-59
2021/04/28 02:59:47;;;;;;;20.32;14.68;;;;;;;4.15;64.06;99740.25;2896234;82;21164;-59
2021/04/28 03:03:52;;;;;;;24.67;16.05;;;;;;;4.06;64.24;99733.78;2896471;82;21144;-58
2021/04/28 03:07:55;;;;;;;19.30;13.45;;;;;;;4.04;64.34;99745.37;2896366;82;21220;-59
2021/04/28 03:11:58;;;;;;;22.85;15.65;;;;;;;4.03;64.38;99737.07;2896731;82;21175;-59
2021/04/28 03:16:01;;;;;;;21.90;14.00;;;;;;;4.04;64.47;99733.52;2896047;82;21156;-59
2021/04/28 03:20:07;;;;;;;39.27;32.42;;;;;;;4.00;64.34;99740.76;2896198;82;21152;-61
2021/04/28 03:24:13;;;;;;;29.27;15.30;;;;;;;3.93;64.59;99737.66;2896094;82;21586;-62
2021/04/28 03:28:16;;;;;;;19.10;13.22;;;;;;;3.70;65.16;99739.95;2896252;82;21618;-61
2021/04/28 03:32:19;;;;;;;28.57;19.60;;;;;;;3.49;65.88;99728.95;2896381;82;21704;-62
2021/04/28 03:36:22;;;;;;;21.37;14.58;;;;;;;3.51;66.26;99732.82;2896366;82;21116;-61
2021/04/28 03:40:25;;;;;;;21.60;14.85;;;;;;;3.45;66.49;99730.09;2896161;82;21140;-62
2021/04/28 03:44:28;;;;;;;26.90;18.70;;;;;;;3.50;66.33;99728.02;2896269;82;21160;-62
2021/04/28 03:48:32;;;;;;;25.17;17.70;;;;;;;3.56;66.20;99732.06;2899373;82;21175;-61
2021/04/28 03:52:35;;;;;;;25.15;18.23;;;;;;;3.51;66.56;99728.88;2899860;81;21605;-61
2021/04/28 03:56:40;;;;;;;23.50;16.07;;;;;;;3.51;67.07;99719.67;2899705;80;21566;-61
2021/04/28 04:00:43;;;;;;;22.90;16.48;;;;;;;3.74;66.76;99716.08;2900367;82;21189;-61
2021/04/28 04:04:46;;;;;;;25.12;15.03;;;;;;;3.88;66.40;99716.52;2900082;82;21140;-63
2021/04/28 04:08:49;;;;;;;26.05;18.95;;;;;;;4.44;66.46;99725.69;2899924;82;21124;-62
2021/04/28 04:12:52;;;;;;;22.55;17.02;;;;;;;5.20;66.23;99722.42;2899973;82;21163;-64
2021/04/28 04:16:56;;;;;;;32.30;17.82;;;;;;;5.99;64.77;99728.83;2900103;82;21136;-62
2021/04/28 04:20:59;;;;;;;31.33;17.82;;;;;;;6.29;61.31;99732.41;2900023;82;21455;-62
2021/04/28 04:25:03;;;;;;;20.60;16.90;;;;;;;6.06;61.13;99725.31;2899952;82;21124;-63
2021/04/28 04:29:05;;;;;;;27.02;17.05;;;;;;;5.78;61.94;99732.05;2900115;80;21144;-65
2021/04/28 04:33:10;;;;;;;20.77;15.72;;;;;;;5.55;62.67;99730.56;2900187;82;21093;-67
2021/04/28 04:37:13;;;;;;;22.50;16.52;;;;;;;5.37;63.31;99738.42;2900208;82;21167;-65
2021/04/28 04:41:16;;;;;;;25.95;17.27;;;;;;;5.22;64.23;99745.12;2899849;80;21522;-64
2021/04/28 04:45:19;;;;;;;26.80;15.70;;;;;;;5.05;65.17;99744.09;2900418;82;21171;-63
2021/04/28 04:49:22;;;;;;;43.60;30.12;;;;;;;5.03;66.23;99747.31;2896222;82;21578;-65
2021/04/28 04:53:25;;;;;;;29.18;21.50;;;;;;;5.21;66.89;99747.39;2896438;82;21144;-66
2021/04/28 04:57:28;;;;;;;26.02;19.70;;;;;;;5.72;65.74;99748.33;2896429;82;21554;-65
2021/04/28 05:01:31;;;;;;;27.37;21.55;;;;;;;6.12;65.08;99740.24;2896574;82;21132;-66
2021/04/28 05:05:34;;;;;;;27.32;18.75;;;;;;;6.74;65.09;99739.34;2896488;82;21144;-64
2021/04/28 05:09:37;;;;;;;42.30;31.70;;;;;;;7.36;62.75;99739.96;2896975;82;21151;-64
2021/04/28 05:13:41;;;;;;;30.12;18.17;;;;;;;7.52;62.17;99740.92;2896495;82;21195;-65
2021/04/28 05:17:44;;;;;;;31.80;23.90;;;;;;;7.52;61.01;99737.81;2896602;82;21164;-66
2021/04/28 05:21:48;;;;;;;27.20;19.30;;;;;;;7.36;60.71;99742.11;2896245;82;21120;-64
2021/04/28 05:25:51;;;;;;;30.48;20.82;;;;;;;7.17;60.98;99732.11;2896485;82;21183;-63
2021/04/28 05:29:54;;;;;;;49.42;35.85;;;;;;;6.99;61.17;99735.20;2896363;81;21136;-65
2021/04/28 05:33:59;;;;;;;35.85;23.12;;;;;;;6.85;62.54;99732.75;2896457;82;21101;-66
2021/04/28 05:38:02;;;;;;;27.85;21.00;;;;;;;6.86;62.87;99733.11;2896615;82;21104;-64
2021/04/28 05:42:05;;;;;;;31.95;21.05;;;;;;;6.92;63.33;99730.02;2896425;82;21144;-64
2021/04/28 05:46:10;;;;;;;33.13;24.40;;;;;;;6.97;62.87;99734.48;2896572;82;21179;-63
2021/04/28 05:50:16;;;;;;;42.15;21.57;;;;;;;7.04;61.69;99724.28;2899806;82;21132;-64
2021/04/28 05:54:19;;;;;;;32.75;22.45;;;;;;;7.18;61.51;99723.72;2900445;82;21590;-64
2021/04/28 05:58:22;;;;;;;31.27;20.60;;;;;;;7.38;62.03;99730.09;2900012;82;21744;-64
2021/04/28 06:02:25;;;;;;;27.95;22.37;;;;;;;7.52;62.37;99739.14;2899658;82;21152;-64
2021/04/28 06:06:28;;;;;;;35.17;23.40;;;;;;;7.51;61.52;99726.87;2909839;81;21118;-64
2021/04/28 06:10:32;;;;;;;32.78;21.15;;;;;;;7.50;61.39;99716.39;2912675;81;21599;-64
2021/04/28 06:14:36;;;;;;;40.20;26.20;;;;;;;7.40;61.83;99718.91;2912228;81;21184;-65
2021/04/28 06:18:39;;;;;;;34.18;23.75;;;;;;;7.28;62.36;99717.59;2912266;81;21126;-63
2021/04/28 06:22:42;;;;;;;35.58;23.75;;;;;;;7.23;62.48;99720.23;2912114;81;21126;-65
2021/04/28 06:26:46;;;;;;;30.12;23.92;;;;;;;7.22;63.66;99713.25;2912007;81;21536;-65
2021/04/28 06:30:49;;;;;;;32.75;24.05;;;;;;;7.28;63.97;99710.98;2912371;81;21121;-66
2021/04/28 06:34:52;;;;;;;31.23;22.20;;;;;;;7.38;64.74;99710.25;2912168;81;21165;-65
2021/04/28 06:38:55;;;;;;;34.25;24.47;;;;;;;7.58;64.63;99721.44;2912506;81;21126;-66
2021/04/28 06:42:58;;;;;;;36.45;23.95;;;;;;;7.75;62.45;99711.34;2912197;81;21181;-65
2021/04/28 06:47:01;;;;;;;33.78;21.90;;;;;;;7.95;62.26;99703.60;2917983;81;21157;-64
2021/04/28 06:51:05;;;;;;;34.80;22.52;;;;;;;8.25;61.66;99696.30;2934376;81;21157;-65
2021/04/28 06:55:11;;;;;;;34.67;24.00;;;;;;;8.53;60.46;99690.08;2934170;81;21746;-66
2021/04/28 06:59:17;;;;;;;33.55;21.52;;;;;;;8.85;59.03;99695.01;2932043;79;21178;-67
2021/04/28 07:03:20;;;;;;;31.70;21.62;;;;;;;9.45;59.02;99699.67;2934868;81;21102;-64
2021/04/28 07:07:23;;;;;;;32.25;21.90;;;;;;;9.88;56.89;99695.55;2934821;81;21138;-64
2021/04/28 07:11:26;;;;;;;42.65;23.45;;;;;;;10.21;56.30;99696.15;2934530;81;21130;-65
2021/04/28 07:15:29;;;;;;;35.52;23.95;;;;;;;10.40;54.61;99694.88;2934580;81;21556;-64
2021/04/28 07:19:35;;;;;;;33.08;21.97;;;;;;;10.59;54.44;99697.69;2934466;81;21110;-64
2021/04/28 07:23:39;;;;;;;33.80;23.10;;;;;;;10.79;53.69;99686.53;2934569;81;21150;-61
2021/04/28 07:27:43;;;;;;;29.80;22.35;;;;;;;11.20;53.93;99691.16;2934925;81;21417;-61
2021/04/28 07:31:46;;;;;;;36.80;25.35;;;;;;;11.60;52.65;99689.69;2934914;81;21157;-62
2021/04/28 07:35:49;;;;;;;31.82;23.73;;;;;;;12.05;51.09;99686.23;2934714;81;21154;-62
2021/04/28 07:39:52;;;;;;;33.78;24.45;;;;;;;12.46;50.77;99684.97;2934802;81;21158;-63
2021/04/28 07:43:58;;;;;;;28.27;21.55;;;;;;;12.89;50.70;99674.48;2935360;81;21162;-61
2021/04/28 07:48:07;;;;;;;36.60;24.82;;;;;;;12.97;49.75;99679.38;2935007;81;21158;-64
2021/04/28 07:52:09;;;;;;;27.58;21.55;;;;;;;12.99;49.74;99681.87;2934947;81;21153;-62
2021/04/28 07:56:12;;;;;;;31.12;22.13;;;;;;;13.02;49.39;99672.22;2935251;81;21158;-63
2021/04/28 08:00:17;;;;;;;37.20;23.02;;;;;;;13.08;49.44;99666.75;2935112;79;21161;-62
2021/04/28 08:04:20;;;;;;;38.20;27.40;;;;;;;13.15;49.25;99667.78;2935378;81;21154;-63
2021/04/28 08:08:24;;;;;;;34.67;23.75;;;;;;;13.32;48.86;99664.73;2935326;81;21130;-61
2021/04/28 08:12:26;;;;;;;39.15;22.45;;;;;;;13.38;48.88;99667.27;2935291;81;21161;-63
2021/04/28 08:16:33;;;;;;;27.67;21.77;;;;;;;13.62;48.65;99665.73;2935419;81;21146;-63
2021/04/28 08:20:38;;;;;;;26.73;22.42;;;;;;;13.62;48.38;99664.39;2935533;81;21173;-62
2021/04/28 08:24:41;;;;;;;34.53;22.48;;;;;;;13.68;48.42;99659.73;2912140;81;21142;-61
2021/04/28 08:28:47;;;;;;;33.40;24.20;;;;;;;13.82;48.39;99654.25;2935358;81;21130;-62
2021/04/28 08:32:49;;;;;;;35.70;23.83;;;;;;;13.89;48.54;99645.09;2935459;81;21122;-63
2021/04/28 08:36:52;;;;;;;28.20;21.68;;;;;;;14.04;48.70;99647.95;2935454;81;21142;-64
2021/04/28 08:41:01;;;;;;;33.90;23.25;;;;;;;14.23;48.91;99642.82;2935672;81;21535;-62
2021/04/28 08:45:06;;;;;;;29.63;21.68;;;;;;;14.37;48.42;99640.83;2935264;81;21106;-63
2021/04/28 08:49:10;;;;;;;27.82;22.07;;;;;;;14.46;49.39;99638.14;2934964;81;21122;-62
2021/04/28 08:53:15;;;;;;;48.90;35.30;;;;;;;14.64;48.97;99637.47;2934763;81;21154;-64
2021/04/28 08:57:19;;;;;;;40.35;23.90;;;;;;;14.77;49.69;99637.50;2935473;81;21157;-63
2021/04/28 09:01:32;;;;;;;30.43;22.27;;;;;;;14.93;49.06;99632.09;2935328;79;21171;-65
2021/04/28 09:05:36;;;;;;;25.48;21.12;;;;;;;15.09;49.47;99627.23;2934944;81;21169;-62
2021/04/28 09:09:46;;;;;;;34.75;21.68;;;;;;;15.28;49.55;99619.28;2935487;81;21123;-64
2021/04/28 09:13:54;;;;;;;28.35;19.20;;;;;;;15.36;48.76;99618.95;2930707;81;21696;-62
2021/04/28 09:17:57;;;;;;;25.72;17.73;;;;;;;15.50;49.01;99607.99;2932325;81;21122;-63
2021/04/28 09:22:04;;;;;;;46.13;26.48;;;;;;;15.67;48.04;99607.39;2935314;81;21529;-65
2021/04/28 09:26:16;;;;;;;29.15;19.67;;;;;;;15.82;47.59;99600.27;2935324;81;21149;-65
2021/04/28 09:30:26;;;;;;;29.00;17.32;;;;;;;15.91;48.00;99590.85;2935875;81;21110;-64
2021/04/28 09:34:40;;;;;;;32.45;20.72;;;;;;;16.17;48.00;99584.32;2935608;81;21153;-63
2021/04/28 09:39:05;;;;;;;51.70;30.30;;;;;;;16.24;46.91;99587.45;2935425;81;22291;-63
2021/04/28 09:43:10;;;;;;;39.38;25.02;;;;;;;16.38;47.24;99577.77;2849431;83;21137;-65
2021/04/28 09:47:18;;;;;;;39.95;26.15;;;;;;;16.42;45.97;99570.20;2849452;83;21145;-65
2021/04/28 09:51:35;;;;;;;34.88;19.35;;;;;;;16.45;46.19;99575.20;2850530;83;21154;-64
2021/04/28 09:55:47;;;;;;;23.87;17.40;;;;;;;16.59;46.23;99561.47;2850591;83;21116;-63
2021/04/28 09:59:52;;;;;;;22.00;16.00;;;;;;;16.73;46.40;99557.65;2850656;83;21149;-64
2021/04/28 10:03:55;;;;;;;27.00;15.85;;;;;;;16.80;46.63;99554.54;2850846;83;21137;-63
2021/04/28 10:08:23;;;;;;;21.07;16.82;;;;;;;16.92;46.76;99554.41;2850695;83;21604;-64
2021/04/28 10:12:27;;;;;;;25.62;17.37;;;;;;;16.99;46.86;99544.61;2850767;83;21126;-63
2021/04/28 10:16:31;;;;;;;17.05;14.80;;;;;;;17.08;46.76;99536.44;2851041;83;21142;-64
2021/04/28 10:20:37;;;;;;;27.15;18.00;;;;;;;17.19;46.88;99534.63;2850316;83;21642;-64
2021/04/28 10:24:41;;;;;;;22.62;17.87;;;;;;;17.20;44.99;99537.64;2850984;83;21153;-64
2021/04/28 10:28:45;;;;;;;16.70;14.07;;;;;;;17.23;45.24;99533.23;2850949;83;21085;-65
2021/04/28 10:32:49;;;;;;;20.90;16.50;;;;;;;17.35;45.54;99523.35;2851297;83;21142;-63
2021/04/28 10:36:55;;;;;;;27.90;17.10;;;;;;;17.53;45.27;99518.39;2851240;83;21173;-65
2021/04/28 10:41:00;;;;;;;21.15;14.78;;;;;;;17.65;44.97;99527.28;2851067;83;21172;-64
2021/04/28 10:45:08;;;;;;;27.20;15.25;;;;;;;17.56;46.25;99509.09;2850893;83;29683;-64
2021/04/28 10:49:18;;;;;;;23.75;15.60;;;;;;;17.73;45.75;99507.00;2851445;83;21109;-65
2021/04/28 10:53:28;;;;;;;23.15;15.05;;;;;;;17.84;45.90;99499.75;2851616;83;21709;-64
2021/04/28 10:57:37;;;;;;;24.20;16.25;;;;;;;17.92;45.03;99487.20;2851571;83;21145;-63
2021/04/28 11:01:40;;;;;;;20.65;14.53;;;;;;;18.04;44.68;99487.55;2851414;83;21183;-63
2021/04/28 11:05:43;;;;;;;21.30;15.05;;;;;;;18.06;44.46;99494.38;2851910;83;21410;-66
2021/04/28 11:09:46;;;;;;;18.70;12.18;;;;;;;18.15;45.24;99494.25;2851848;82;21141;-66
2021/04/28 11:14:14;;;;;;;22.65;12.73;;;;;;;18.19;43.50;99481.56;2851739;83;21146;-66
2021/04/28 11:18:38;;;;;;;16.65;13.88;;;;;;;18.24;43.41;99483.65;2851708;83;21121;-65
2021/04/28 11:22:41;;;;;;;17.25;12.53;;;;;;;18.22;43.87;99465.52;2851405;83;21181;-64
2021/04/28 11:26:50;;;;;;;16.17;11.15;;;;;;;18.28;44.22;99462.06;2852005;83;21587;-64
2021/04/28 11:30:54;;;;;;;14.20;9.90;;;;;;;18.36;43.54;99455.16;2851924;83;21161;-63
2021/04/28 11:35:03;;;;;;;20.68;15.08;;;;;;;18.54;43.08;99454.64;2852305;82;21122;-64
2021/04/28 11:39:06;;;;;;;15.25;10.80;;;;;;;18.62;43.05;99456.88;2849720;83;21137;-65
2021/04/28 11:43:10;;;;;;;22.32;13.15;;;;;;;18.68;43.19;99446.64;2852148;83;21119;-65
2021/04/28 11:47:20;;;;;;;18.20;11.63;;;;;;;18.65;42.01;99443.00;2874468;82;21173;-65
2021/04/28 11:51:28;;;;;;;25.72;16.10;;;;;;;18.67;42.57;99445.83;2903583;81;21558;-65
2021/04/28 11:55:41;;;;;;;11.35;7.92;;;;;;;18.75;41.43;99433.21;2903548;82;21121;-65
2021/04/28 11:59:44;;;;;;;12.35;7.97;;;;;;;18.62;42.60;99437.49;2903490;80;21133;-63
2021/04/28 12:04:05;;;;;;;10.40;8.40;;;;;;;18.67;41.97;99433.70;2903468;82;21133;-64
2021/04/28 12:08:07;;;;;;;12.70;7.90;;;;;;;18.80;41.73;99422.16;2903771;82;21117;-63
2021/04/28 12:12:28;;;;;;;15.23;9.85;;;;;;;19.04;43.17;99431.27;2903949;81;21098;-65
2021/04/28 12:16:41;;;;;;;10.90;8.35;;;;;;;19.22;42.22;99413.19;2903920;82;21168;-65
2021/04/28 12:20:44;;;;;;;11.95;7.70;;;;;;;19.40;42.11;99413.43;2904183;81;21125;-64
2021/04/28 12:24:52;;;;;;;12.10;9.43;;;;;;;19.58;41.89;99403.06;2904249;81;21129;-65
2021/04/28 12:28:58;;;;;;;10.40;5.95;;;;;;;19.74;41.32;99390.52;2904332;81;21121;-64
2021/04/28 12:33:02;;;;;;;9.45;6.45;;;;;;;19.60;40.69;99389.69;2904045;81;21133;-64
2021/04/28 12:37:21;;;;;;;7.60;5.20;;;;;;;19.60;40.59;99391.04;2904637;82;21139;-63
2021/04/28 12:41:24;;;;;;;14.85;8.38;;;;;;;19.59;40.93;99379.94;2904088;82;21162;-64
2021/04/28 12:45:30;;;;;;;7.08;5.25;;;;;;;19.73;39.56;99380.77;2903407;82;21113;-64
2021/04/28 12:49:33;;;;;;;8.00;5.85;;;;;;;19.70;40.24;99369.86;2898433;81;21149;-63
2021/04/28 12:53:41;;;;;;;5.67;4.20;;;;;;;19.76;40.75;99372.78;2893107;82;21169;-64
2021/04/28 12:58:01;;;;;;;14.35;8.85;;;;;;;19.72;40.24;99366.13;2893130;82;21147;-65
2021/04/28 13:02:18;;;;;;;14.45;5.53;;;;;;;20.05;40.47;99360.73;2959505;77;22077;-64
2021/04/28 13:06:25;;;;;;;6.40;4.80;;;;;;;20.21;40.40;99355.89;2905401;82;21165;-65
2021/04/28 13:10:28;;;;;;;7.15;4.85;;;;;;;20.11;39.28;99352.28;2905298;82;21129;-65
2021/04/28 13:14:51;;;;;;;13.18;6.58;;;;;;;19.92;39.96;99355.34;2905578;82;21109;-64
2021/04/28 13:18:56;;;;;;;6.62;4.80;;;;;;;20.08;40.17;99346.81;2903638;82;21140;-64
2021/04/28 13:23:17;;;;;;;16.10;6.57;;;;;;;20.09;39.06;99336.83;2903893;80;21125;-63
2021/04/28 13:27:28;;;;;;;7.58;5.12;;;;;;;20.21;41.80;99337.00;2904728;81;21161;-62
2021/04/28 13:31:35;;;;;;;6.58;5.83;;;;;;;20.23;40.05;99328.16;2904627;81;21129;-61
2021/04/28 13:35:38;;;;;;;9.23;5.30;;;;;;;20.28;40.19;99324.32;2904639;81;21153;-62
2021/04/28 13:39:42;;;;;;;7.08;4.05;;;;;;;20.27;39.32;99311.86;2899357;82;21099;-63
2021/04/28 13:43:52;;;;;;;6.47;4.92;;;;;;;20.31;39.65;99317.14;2875982;82;21606;-64
2021/04/28 13:47:58;;;;;;;8.55;4.58;;;;;;;20.45;38.89;99307.64;2899908;82;21097;-64
2021/04/28 13:52:04;;;;;;;5.60;4.15;;;;;;;20.43;40.58;99304.30;2901384;82;21564;-65
2021/04/28 13:56:13;;;;;;;5.80;3.27;;;;;;;20.28;39.70;99304.58;2900988;81;21145;-63
2021/04/28 14:00:17;;;;;;;8.93;4.25;;;;;;;20.23;39.78;99302.00;2909963;80;21109;-63
2021/04/28 14:04:24;;;;;;;6.12;4.65;;;;;;;20.07;39.63;99292.52;2923084;81;21156;-63
2021/04/28 14:08:27;;;;;;;10.90;4.55;;;;;;;20.12;39.58;99290.50;2924381;81;21092;-63
2021/04/28 14:12:30;;;;;;;3.40;2.83;;;;;;;20.28;39.97;99281.62;2923119;80;21140;-64
2021/04/28 14:16:35;;;;;;;9.35;3.40;;;;;;;20.31;39.38;99283.38;2923583;81;21073;-64
2021/04/28 14:21:02;;;;;;;10.88;3.55;;;;;;;20.45;40.00;99286.84;2922662;81;21129;-64
2021/04/28 14:25:09;;;;;;;9.90;4.55;;;;;;;20.51;37.73;99278.41;2881430;81;21087;-65
2021/04/28 14:29:16;;;;;;;13.93;3.73;;;;;;;20.52;38.50;99273.31;2889276;81;21139;-64
2021/04/28 14:33:22;;;;;;;5.92;3.62;;;;;;;20.47;38.43;99273.14;2870014;81;21130;-64
2021/04/28 14:37:27;;;;;;;5.60;3.10;;;;;;;20.51;39.46;99274.36;2891327;81;21122;-63
2021/04/28 14:41:30;;;;;;;7.55;4.35;;;;;;;20.57;39.16;99272.67;2890877;81;21111;-63
2021/04/28 14:45:35;;;;;;;7.40;3.75;;;;;;;20.66;39.34;99266.80;2899233;81;21115;-65
2021/04/28 14:49:41;;;;;;;63.48;37.93;;;;;;;20.69;38.70;99263.66;2913057;81;21131;-63
2021/04/28 14:53:45;;;;;;;9.93;5.80;;;;;;;20.56;39.36;99259.67;2912618;81;21103;-63
2021/04/28 14:57:48;;;;;;;11.70;5.35;;;;;;;20.31;39.37;99256.38;2879500;81;21174;-63
2021/04/28 15:01:51;;;;;;;4.33;3.37;;;;;;;20.20;38.97;99248.44;2888199;82;21117;-64
2021/04/28 15:05:54;;;;;;;6.72;3.35;;;;;;;20.24;39.00;99250.16;2734447;84;21117;-63
2021/04/28 15:09:57;;;;;;;5.05;3.05;;;;;;;20.26;37.87;99253.51;2759556;86;21183;-64
2021/04/28 15:14:00;;;;;;;3.75;2.50;;;;;;;20.08;38.13;99245.59;2796825;85;21161;-64
2021/04/28 15:18:05;;;;;;;41.35;23.47;;;;;;;20.06;38.41;99245.48;2747988;86;21169;-66
2021/04/28 15:22:08;;;;;;;37.63;24.50;;;;;;;20.04;38.59;99242.17;2745376;86;21657;-64
2021/04/28 15:26:11;;;;;;;7.90;5.05;;;;;;;20.02;37.97;99239.67;2771963;85;21128;-65
2021/04/28 15:30:16;;;;;;;7.58;3.77;;;;;;;20.10;38.07;99234.05;2754318;86;21197;-65
2021/04/28 15:34:19;;;;;;;5.30;3.50;;;;;;;20.22;38.49;99233.36;2746875;86;21174;-64
2021/04/28 15:38:23;;;;;;;6.92;3.87;;;;;;;20.33;39.27;99235.39;2795067;84;21768;-64
2021/04/28 15:42:27;;;;;;;9.10;3.87;;;;;;;20.36;38.20;99236.84;2754717;85;21173;-65
2021/04/28 15:46:31;;;;;;;7.47;4.72;;;;;;;20.34;38.52;99234.85;2794987;85;21157;-64
2021/04/28 15:50:35;;;;;;;5.72;4.12;;;;;;;20.28;37.65;99227.12;2771741;86;21149;-65
2021/04/28 15:54:38;;;;;;;4.80;4.12;;;;;;;20.36;38.14;99226.04;2783892;85;21137;-65
2021/04/28 15:58:42;;;;;;;46.88;23.70;;;;;;;20.45;37.87;99217.16;2784118;85;21165;-65
2021/04/28 16:02:45;;;;;;;12.88;11.53;;;;;;;20.47;39.21;99207.78;2783311;85;21156;-64
2021/04/28 16:06:49;;;;;;;38.10;13.08;;;;;;;20.35;39.92;99214.39;2783862;85;21125;-65
2021/04/28 16:10:53;;;;;;;4.33;3.92;;;;;;;20.17;40.78;99212.94;2783197;84;22033;-63
2021/04/28 16:14:56;;;;;;;8.68;6.47;;;;;;;20.09;40.33;99202.70;2783553;85;21592;-64
2021/04/28 16:18:59;;;;;;;6.78;5.15;;;;;;;20.11;39.50;99199.27;2783411;85;21139;-63
2021/04/28 16:23:02;;;;;;;10.65;6.70;;;;;;;20.15;39.89;99196.13;2783190;85;21118;-65
2021/04/28 16:27:05;;;;;;;9.05;6.05;;;;;;;20.16;40.36;99191.03;2783696;85;21154;-64
2021/04/28 16:31:09;;;;;;;13.55;8.35;;;;;;;20.16;40.79;99184.28;2783411;85;21189;-65
2021/04/28 16:35:14;;;;;;;8.53;6.20;;;;;;;20.14;41.10;99181.78;2783326;85;21165;-64
2021/04/28 16:39:17;;;;;;;6.97;3.80;;;;;;;20.11;41.80;99183.06;2783392;85;21110;-64
2021/04/28 16:43:20;;;;;;;9.43;4.10;;;;;;;20.02;40.46;99185.69;2783437;85;21102;-65
2021/04/28 16:47:23;;;;;;;10.08;6.35;;;;;;;19.92;41.30;99182.10;2783186;85;21098;-64
2021/04/28 16:51:27;;;;;;;20.72;14.25;;;;;;;19.70;42.00;99182.91;2802218;84;21182;-64
2021/04/28 16:55:33;;;;;;;10.28;5.95;;;;;;;19.44;42.32;99187.84;2791971;85;21185;-65
2021/04/28 16:59:36;;;;;;;7.50;4.55;;;;;;;19.19;42.77;99185.30;2772475;84;21641;-64
2021/04/28 17:03:39;;;;;;;13.13;9.88;;;;;;;19.01;43.59;99186.45;2754500;84;21196;-65
2021/04/28 17:07:42;;;;;;;12.63;7.87;;;;;;;18.88;44.43;99188.09;2795903;83;21189;-65
2021/04/28 17:11:47;;;;;;;9.78;5.87;;;;;;;18.81;44.81;99195.33;2781815;85;21227;-66
2021/04/28 17:15:51;;;;;;;6.45;5.37;;;;;;;18.66;44.93;99186.92;2750397;85;21196;-65
2021/04/28 17:19:59;;;;;;;19.17;9.95;;;;;;;18.58;45.51;99187.13;2797115;85;21188;-63
2021/04/28 17:23:59;;;;;;;7.75;5.45;;;;;;;18.48;45.89;99188.06;2785964;83;21148;-65
2021/04/28 17:28:10;;;;;;;18.23;11.43;;;;;;;18.26;46.56;99180.97;2788094;85;21164;-64
2021/04/28 17:32:17;;;;;;;16.45;7.75;;;;;;;18.07;47.54;99186.59;2786923;85;21231;-66
2021/04/28 17:36:20;;;;;;;14.25;11.05;;;;;;;17.86;47.77;99186.19;2793969;83;21153;-61
2021/04/28 17:40:24;;;;;;;12.47;9.30;;;;;;;17.73;48.13;99180.74;2752039;85;21149;-63
2021/04/28 17:44:29;;;;;;;35.15;15.60;;;;;;;17.66;48.07;99180.70;2794350;85;21190;-63
2021/04/28 17:48:32;;;;;;;21.42;13.00;;;;;;;17.52;48.35;99187.38;2764687;85;21189;-64
2021/04/28 17:52:36;;;;;;;22.22;12.58;;;;;;;17.27;49.29;99189.17;2793115;85;21177;-65
2021/04/28 17:56:40;;;;;;;15.13;9.93;;;;;;;17.00;49.97;99188.18;2795564;85;21153;-64
2021/04/28 18:00:49;;;;;;;15.13;10.82;;;;;;;16.78;50.41;99190.02;2795340;85;21661;-65
2021/04/28 18:04:53;;;;;;;21.52;13.98;;;;;;;16.67;50.57;99194.06;2843417;83;21158;-64
2021/04/28 18:08:57;;;;;;;44.03;23.77;;;;;;;16.58;50.93;99198.72;2795284;85;21158;-65
2021/04/28 18:12:59;;;;;;;37.80;24.85;;;;;;;16.37;52.20;99195.51;2749419;86;21119;-65
2021/04/28 18:17:03;;;;;;;56.55;32.67;;;;;;;16.19;52.41;99196.77;2761817;85;21169;-65
2021/04/28 18:21:09;;;;;;;49.85;29.48;;;;;;;15.97;52.21;99197.25;2768997;85;21173;-64
2021/04/28 18:25:13;;;;;;;;;;;;;;;15.84;52.36;99202.73;2798584;85;21206;-64
2021/04/28 18:29:17;;;;;;;39.90;24.52;;;;;;;15.62;52.84;99195.63;2805929;84;20180;-63
2021/04/28 18:33:20;;;;;;;18.77;10.50;;;;;;;15.37;52.92;99199.94;2801021;84;21225;-63
2021/04/28 18:37:24;;;;;;;29.37;14.00;;;;;;;15.10;54.10;99203.53;2763011;85;21196;-64
2021/04/28 18:41:28;;;;;;;20.40;13.90;;;;;;;14.85;54.69;99205.94;2795554;83;21713;-63
2021/04/28 18:45:31;;;;;;;38.23;22.37;;;;;;;14.63;54.89;99199.55;2786215;85;21185;-63
2021/04/28 18:49:34;;;;;;;33.67;20.60;;;;;;;14.57;54.78;99201.09;2786507;85;21101;-63
2021/04/28 18:53:38;;;;;;;56.73;33.02;;;;;;;14.45;54.46;99201.69;2787853;84;21796;-60
2021/04/28 19:02:01;;;;;;;17.23;13.35;;;;;;;14.29;54.21;99206.13;2832761;84;21165;-62